createdAt,value
2024-03-02T00:00:57.451Z,41.30
2024-03-02T00:03:26.126Z,43.97
2024-03-02T00:05:54.463Z,41.93
2024-03-02T00:08:27.676Z,41.13
2024-03-02T00:11:01.128Z,40.87
2024-03-02T00:13:29.461Z,42.40
2024-03-02T00:15:58.869Z,42.17
2024-03-02T00:18:35.860Z,43.67
2024-03-02T00:21:04.688Z,41.13
2024-03-02T00:23:33.240Z,47.83
2024-03-02T00:26:01.994Z,47.80
2024-03-02T00:28:39.741Z,39.57
2024-03-02T00:31:14.236Z,44.43
2024-03-02T00:33:51.115Z,44.33
2024-03-02T00:36:27.173Z,42.73
2024-03-02T00:38:57.686Z,38.80
2024-03-02T00:41:27.512Z,39.57
2024-03-02T00:44:07.390Z,41.07
2024-03-02T00:46:42.740Z,41.77
2024-03-02T00:49:23.294Z,39.53
2024-03-02T00:51:54.087Z,38.87
2024-03-02T00:54:25.835Z,43.67
2024-03-02T00:56:56.604Z,39.93
2024-03-02T00:59:25.634Z,41.63
2024-03-02T01:01:55.198Z,44.60
2024-03-02T01:04:23.690Z,42.80
2024-03-02T01:06:51.566Z,41.77
2024-03-02T01:09:20.993Z,45.67
2024-03-02T01:11:49.368Z,42.10
2024-03-02T01:14:17.582Z,42.97
2024-03-02T01:16:45.896Z,40.27
2024-03-02T01:19:14.213Z,43.57
2024-03-02T01:21:42.537Z,44.13
2024-03-02T01:24:10.790Z,39.67
2024-03-02T01:26:39.068Z,40.90
2024-03-02T01:29:07.285Z,40.07
2024-03-02T01:31:35.586Z,39.30
2024-03-02T01:34:04.124Z,38.33
2024-03-02T01:36:32.517Z,38.87
2024-03-02T01:39:00.789Z,41.83
2024-03-02T01:41:28.985Z,38.63
2024-03-02T01:43:57.262Z,39.70
2024-03-02T01:46:25.775Z,39.23
2024-03-02T01:48:54.319Z,39.53
2024-03-02T01:51:22.818Z,39.43
2024-03-02T01:53:51.064Z,39.13
2024-03-02T01:56:19.372Z,37.67
2024-03-02T01:58:47.605Z,37.93
2024-03-02T02:01:16.011Z,34.77
2024-03-02T02:03:44.318Z,36.97
2024-03-02T02:06:12.863Z,33.73
2024-03-02T02:08:41.097Z,33.23
2024-03-02T02:11:09.456Z,37.87
2024-03-02T02:13:37.779Z,35.33
2024-03-02T02:16:09.559Z,31.47
2024-03-02T02:18:37.998Z,31.83
2024-03-02T02:21:05.969Z,33.30
2024-03-02T02:23:34.180Z,30.17
2024-03-02T02:26:03.897Z,28.20
2024-03-02T02:28:34.789Z,26.67
2024-03-02T02:31:04.142Z,28.90
2024-03-02T02:33:32.522Z,29.27
2024-03-02T02:36:00.750Z,30.23
2024-03-02T02:38:28.956Z,28.33
2024-03-02T02:40:57.181Z,30.43
2024-03-02T02:43:25.367Z,32.47
2024-03-02T02:45:53.846Z,28.97
2024-03-02T02:48:22.233Z,27.00
2024-03-02T02:50:51.548Z,30.47
2024-03-02T02:53:20.304Z,30.17
2024-03-02T02:55:48.562Z,29.30
2024-03-02T02:58:16.876Z,29.53
2024-03-02T03:00:45.229Z,25.53
2024-03-02T03:03:13.500Z,28.60
2024-03-02T03:05:41.706Z,28.37
2024-03-02T03:08:09.928Z,29.27
2024-03-02T03:10:38.198Z,25.57
2024-03-02T03:13:09.244Z,27.93
2024-03-02T03:15:38.421Z,27.90
2024-03-02T03:18:07.386Z,27.23
2024-03-02T03:20:35.865Z,24.80
2024-03-02T03:23:05.022Z,25.13
2024-03-02T03:25:33.558Z,28.20
2024-03-02T03:28:04.198Z,25.23
2024-03-02T03:30:32.532Z,25.63
2024-03-02T03:33:00.837Z,26.67
2024-03-02T03:35:29.063Z,26.00
2024-03-02T03:37:57.242Z,27.17
2024-03-02T03:40:25.160Z,24.57
2024-03-02T03:42:53.380Z,27.67
2024-03-02T03:45:24.545Z,25.67
2024-03-02T03:47:52.820Z,23.40
2024-03-02T03:50:21.050Z,25.23
2024-03-02T03:52:49.283Z,30.23
2024-03-02T03:55:17.509Z,27.30
2024-03-02T03:57:45.557Z,24.33
2024-03-02T04:00:14.342Z,24.27
2024-03-02T04:02:42.776Z,28.53
2024-03-02T04:05:12.051Z,25.00
2024-03-02T04:07:41.826Z,25.93
2024-03-02T04:10:13.865Z,24.27
2024-03-02T04:12:42.378Z,25.77
2024-03-02T04:15:10.721Z,25.60
2024-03-02T04:17:39.040Z,23.97
2024-03-02T04:20:07.700Z,22.03
2024-03-02T04:22:36.733Z,26.97
2024-03-02T04:25:05.848Z,25.13
2024-03-02T04:27:34.620Z,26.50
2024-03-02T04:30:03.255Z,23.93
2024-03-02T04:32:31.540Z,23.80
2024-03-02T04:35:00.069Z,26.03
2024-03-02T04:37:28.374Z,25.93
2024-03-02T04:39:56.591Z,27.60
2024-03-02T04:42:25.877Z,22.53
2024-03-02T04:44:54.023Z,22.97
2024-03-02T04:47:22.343Z,23.67
2024-03-02T04:49:50.592Z,27.10
2024-03-02T04:52:19.294Z,23.73
2024-03-02T04:55:05.182Z,24.33
2024-03-02T04:57:33.476Z,27.77
2024-03-02T05:00:02.020Z,26.63
2024-03-02T05:02:30.224Z,25.87
2024-03-02T05:04:58.412Z,27.80
2024-03-02T05:07:26.617Z,26.23
2024-03-02T05:09:54.862Z,24.43
2024-03-02T05:12:48.392Z,25.00
2024-03-02T05:15:17.289Z,23.23
2024-03-02T05:17:45.866Z,23.77
2024-03-02T05:20:14.290Z,25.40
2024-03-02T05:22:42.614Z,24.97
2024-03-02T05:25:10.869Z,25.50
2024-03-02T05:27:39.280Z,23.03
2024-03-02T05:30:08.578Z,26.77
2024-03-02T05:32:36.955Z,23.53
2024-03-02T05:35:06.155Z,24.50
2024-03-02T05:37:34.971Z,23.50
2024-03-02T05:40:03.809Z,26.10
2024-03-02T05:42:32.130Z,24.63
2024-03-02T05:45:00.560Z,26.00
2024-03-02T05:47:29.003Z,25.80
2024-03-02T05:49:57.295Z,24.27
2024-03-02T05:52:25.518Z,25.87
2024-03-02T05:54:53.846Z,27.63
2024-03-02T05:57:35.068Z,29.23
2024-03-02T06:00:05.691Z,26.90
2024-03-02T06:02:35.697Z,25.70
2024-03-02T06:05:04.993Z,24.80
2024-03-02T06:07:33.264Z,28.40
2024-03-02T06:10:01.836Z,26.37
2024-03-02T06:12:30.174Z,24.13
2024-03-02T06:14:58.449Z,27.53
2024-03-02T06:17:26.697Z,27.70
2024-03-02T06:19:54.956Z,28.30
2024-03-02T06:22:24.055Z,28.07
2024-03-02T06:24:52.637Z,27.07
2024-03-02T06:27:21.640Z,30.33
2024-03-02T06:29:49.945Z,27.60
2024-03-02T06:32:18.180Z,25.67
2024-03-02T06:34:46.393Z,28.30
2024-03-02T06:37:14.667Z,27.63
2024-03-02T06:39:42.931Z,27.23
2024-03-02T06:42:11.156Z,24.53
2024-03-02T06:44:39.359Z,27.80
2024-03-02T06:47:07.745Z,27.77
2024-03-02T06:49:36.458Z,27.87
2024-03-02T06:52:04.389Z,26.57
2024-03-02T06:54:32.780Z,30.40
2024-03-02T06:57:11.079Z,31.10
2024-03-02T06:59:39.367Z,28.87
2024-03-02T07:02:07.861Z,27.57
2024-03-02T07:04:36.145Z,28.73
2024-03-02T07:07:04.491Z,26.80
2024-03-02T07:09:32.899Z,30.03
2024-03-02T07:12:01.692Z,28.40
2024-03-02T07:14:56.562Z,27.67
2024-03-02T07:17:24.516Z,28.40
2024-03-02T07:19:52.815Z,26.57
2024-03-02T07:22:21.061Z,30.33
2024-03-02T07:24:49.592Z,31.00
2024-03-02T07:27:18.561Z,28.00
2024-03-02T07:29:46.848Z,29.90
2024-03-02T07:32:15.024Z,31.93
2024-03-02T07:34:43.244Z,30.53
2024-03-02T07:37:11.644Z,31.87
2024-03-02T07:39:40.232Z,33.93
2024-03-02T07:42:08.501Z,30.67
2024-03-02T07:44:37.113Z,32.47
2024-03-02T07:47:06.102Z,27.53
2024-03-02T07:49:34.335Z,30.07
2024-03-02T07:52:02.718Z,29.37
2024-03-02T07:54:31.139Z,29.43
2024-03-02T07:56:59.852Z,26.53
2024-03-02T07:59:28.068Z,29.57
2024-03-02T08:01:57.286Z,28.53
2024-03-02T08:04:25.771Z,26.90
2024-03-02T08:06:55.564Z,25.17
2024-03-02T08:09:23.921Z,25.87
2024-03-02T08:11:52.151Z,29.10
2024-03-02T08:14:20.524Z,27.40
2024-03-02T08:16:48.781Z,28.53
2024-03-02T08:19:17.150Z,29.03
2024-03-02T08:21:46.090Z,32.37
2024-03-02T08:24:14.373Z,26.80
2024-03-02T08:26:44.773Z,33.07
2024-03-02T08:29:13.903Z,26.13
2024-03-02T08:31:42.534Z,27.37
2024-03-02T08:34:11.369Z,28.03
2024-03-02T08:36:40.142Z,26.80
2024-03-02T08:39:16.256Z,30.00
2024-03-02T08:41:48.425Z,26.70
2024-03-02T08:44:16.924Z,29.47
2024-03-02T08:46:45.523Z,28.33
2024-03-02T08:49:14.139Z,27.53
2024-03-02T08:51:42.442Z,30.00
2024-03-02T08:54:10.932Z,28.40
2024-03-02T08:56:39.235Z,28.77
2024-03-02T08:59:07.457Z,30.03
2024-03-02T09:01:35.908Z,25.50
2024-03-02T09:04:04.248Z,28.13
2024-03-02T09:06:32.498Z,25.63
2024-03-02T09:09:00.761Z,26.67
2024-03-02T09:11:29.179Z,26.80
2024-03-02T09:13:58.897Z,27.17
2024-03-02T09:16:31.805Z,27.70
2024-03-02T09:19:01.392Z,27.93
2024-03-02T09:21:31.115Z,29.03
2024-03-02T09:23:59.510Z,25.57
2024-03-02T09:26:27.721Z,27.60
2024-03-02T09:28:55.960Z,26.73
2024-03-02T09:31:24.179Z,25.80
2024-03-02T09:33:52.456Z,25.60
2024-03-02T09:36:22.203Z,26.67
2024-03-02T09:38:50.610Z,25.43
2024-03-02T09:41:19.143Z,26.87
2024-03-02T09:43:47.451Z,29.50
2024-03-02T09:46:15.813Z,25.70
2024-03-02T09:48:44.057Z,24.50
2024-03-02T09:51:14.078Z,24.17
2024-03-02T09:53:42.641Z,24.60
2024-03-02T09:56:10.881Z,24.60
2024-03-02T09:58:40.316Z,24.37
2024-03-02T10:01:08.848Z,23.80
2024-03-02T10:03:37.460Z,22.97
2024-03-02T10:06:32.159Z,22.03
2024-03-02T10:09:00.393Z,25.33
2024-03-02T10:11:38.721Z,22.37
2024-03-02T10:14:14.882Z,26.80
2024-03-02T10:16:47.949Z,22.47
2024-03-02T10:19:25.216Z,24.80
2024-03-02T10:21:55.638Z,22.53
2024-03-02T10:24:25.294Z,20.13
2024-03-02T10:26:54.182Z,23.20
2024-03-02T10:29:30.859Z,20.60
2024-03-02T10:32:02.630Z,23.43
2024-03-02T10:34:30.879Z,20.73
2024-03-02T10:37:02.938Z,22.67
2024-03-02T10:39:32.511Z,20.20
2024-03-02T10:42:01.315Z,18.43
2024-03-02T10:44:29.774Z,18.00
2024-03-02T10:46:58.424Z,20.33
2024-03-02T10:49:29.023Z,18.00
2024-03-02T10:51:57.315Z,21.87
2024-03-02T10:54:27.979Z,17.40
2024-03-02T10:56:58.273Z,17.23
2024-03-02T10:59:31.752Z,16.27
2024-03-02T11:02:05.520Z,17.87
2024-03-02T11:04:35.989Z,14.53
2024-03-02T11:07:10.896Z,13.67
2024-03-02T11:10:09.564Z,12.07
2024-03-02T11:13:07.011Z,12.47
2024-03-02T11:15:38.819Z,11.57
2024-03-02T11:18:11.978Z,8.87
2024-03-02T11:20:43.982Z,14.17
2024-03-02T11:23:12.482Z,11.33
2024-03-02T11:25:41.046Z,12.37
2024-03-02T11:28:10.774Z,13.37
2024-03-02T11:30:40.988Z,11.00
2024-03-02T11:33:11.047Z,12.23
2024-03-02T11:35:44.801Z,13.07
2024-03-02T11:38:20.217Z,13.80
2024-03-02T11:40:48.452Z,13.97
2024-03-02T11:43:16.989Z,15.23
2024-03-02T11:45:51.052Z,13.50
2024-03-02T11:48:19.252Z,13.17
2024-03-02T11:50:52.955Z,11.53
2024-03-02T11:53:25.391Z,10.50
2024-03-02T11:56:01.783Z,12.77
2024-03-02T11:58:31.992Z,15.53
2024-03-02T12:01:00.308Z,13.30
2024-03-02T12:03:29.037Z,11.23
2024-03-02T12:05:58.120Z,13.23
2024-03-02T12:08:26.399Z,12.40
2024-03-02T12:11:17.263Z,13.60
2024-03-02T12:14:03.073Z,13.73
2024-03-02T12:16:31.355Z,12.90
2024-03-02T12:18:59.739Z,11.47
2024-03-02T12:21:32.970Z,10.97
2024-03-02T12:24:03.664Z,9.97
2024-03-02T12:26:32.299Z,17.33
2024-03-02T12:29:00.714Z,10.53
2024-03-02T12:31:28.897Z,9.23
2024-03-02T12:33:57.716Z,9.17
2024-03-02T12:36:26.232Z,11.97
2024-03-02T12:38:58.119Z,9.57
2024-03-02T12:41:32.860Z,10.93
2024-03-02T12:44:01.482Z,10.13
2024-03-02T12:46:30.219Z,10.07
2024-03-02T12:48:58.658Z,9.27
2024-03-02T12:51:27.350Z,10.63
2024-03-02T12:53:57.335Z,13.07
2024-03-02T12:56:28.875Z,12.03
2024-03-02T12:58:57.589Z,10.13
2024-03-02T13:01:25.902Z,11.57
2024-03-02T13:03:56.232Z,11.67
2024-03-02T13:06:35.802Z,10.83
2024-03-02T13:09:04.925Z,9.63
2024-03-02T13:11:33.225Z,11.00
2024-03-02T13:14:02.930Z,9.30
2024-03-02T13:16:33.265Z,9.40
2024-03-02T13:19:13.831Z,10.40
2024-03-02T13:21:42.133Z,10.63
2024-03-02T13:24:10.382Z,9.07
2024-03-02T13:26:38.831Z,8.87
2024-03-02T13:29:07.068Z,8.47
2024-03-02T13:31:35.302Z,10.30
2024-03-02T13:34:03.700Z,6.97
2024-03-02T13:36:32.010Z,7.87
2024-03-02T13:39:00.991Z,8.97
2024-03-02T13:41:29.196Z,6.93
2024-03-02T13:43:57.440Z,8.67
2024-03-02T13:46:25.754Z,11.30
2024-03-02T13:48:54.086Z,9.47
2024-03-02T13:51:22.318Z,11.40
2024-03-02T13:53:50.787Z,8.17
2024-03-02T13:56:18.979Z,11.37
2024-03-02T13:58:47.217Z,10.17
2024-03-02T14:01:15.914Z,9.70
2024-03-02T14:03:44.228Z,11.00
2024-03-02T14:06:12.557Z,10.07
2024-03-02T14:08:40.753Z,9.77
2024-03-02T14:11:10.270Z,10.63
2024-03-02T14:13:38.549Z,12.80
2024-03-02T14:16:07.246Z,10.47
2024-03-02T14:18:35.632Z,10.40
2024-03-02T14:21:04.953Z,9.83
2024-03-02T14:23:33.179Z,9.83
2024-03-02T14:26:01.568Z,8.53
2024-03-02T14:28:47.337Z,13.57
2024-03-02T14:31:18.659Z,9.80
2024-03-02T14:33:46.992Z,9.07
2024-03-02T14:36:15.578Z,9.13
2024-03-02T14:38:43.839Z,9.63
2024-03-02T14:41:12.192Z,8.30
2024-03-02T14:43:40.424Z,7.90
2024-03-02T14:46:10.446Z,7.27
2024-03-02T14:48:39.268Z,7.37
2024-03-02T14:51:07.662Z,7.53
2024-03-02T14:53:36.585Z,7.93
2024-03-02T14:56:05.378Z,7.17
2024-03-02T14:58:33.640Z,6.33
2024-03-02T15:01:01.949Z,8.80
2024-03-02T15:03:30.312Z,10.40
2024-03-02T15:05:58.603Z,9.03
2024-03-02T15:08:26.866Z,8.13
2024-03-02T15:10:56.933Z,7.13
2024-03-02T15:13:25.975Z,7.10
2024-03-02T15:15:54.405Z,5.83
2024-03-02T15:18:22.681Z,6.23
2024-03-02T15:20:51.011Z,6.30
2024-03-02T15:23:18.841Z,7.40
2024-03-02T15:25:47.715Z,6.17
2024-03-02T15:28:15.993Z,7.07
2024-03-02T15:30:45.998Z,5.40
2024-03-02T15:33:14.280Z,7.93
2024-03-02T15:35:42.520Z,7.43
2024-03-02T15:38:21.972Z,7.03
2024-03-02T15:40:56.969Z,6.80
2024-03-02T15:43:25.570Z,9.00
2024-03-02T15:45:53.835Z,7.23
2024-03-02T15:48:22.108Z,7.00
2024-03-02T15:50:51.256Z,8.03
2024-03-02T15:53:19.454Z,5.80
2024-03-02T15:55:47.996Z,9.07
2024-03-02T15:58:16.227Z,6.53
2024-03-02T16:00:44.587Z,8.97
2024-03-02T16:03:13.089Z,8.67
2024-03-02T16:05:43.962Z,9.40
2024-03-02T16:08:12.365Z,7.80
2024-03-02T16:10:40.641Z,7.23
2024-03-02T16:13:08.969Z,5.97
2024-03-02T16:15:37.579Z,8.03
2024-03-02T16:18:06.106Z,7.63
2024-03-02T16:20:34.830Z,7.50
2024-03-02T16:23:03.144Z,8.70
2024-03-02T16:25:32.131Z,9.77
2024-03-02T16:28:02.513Z,8.13
2024-03-02T16:30:30.824Z,10.80
2024-03-02T16:32:59.744Z,11.03
2024-03-02T16:35:28.220Z,10.83
2024-03-02T16:37:56.473Z,10.73
2024-03-02T16:40:24.709Z,13.63
2024-03-02T16:42:53.363Z,9.63
2024-03-02T16:45:21.622Z,9.37
2024-03-02T16:47:50.415Z,11.80
2024-03-02T16:50:18.691Z,10.33
2024-03-02T16:52:47.205Z,11.97
2024-03-02T16:55:15.836Z,14.17
2024-03-02T16:57:44.239Z,12.47
2024-03-02T17:00:12.972Z,11.97
2024-03-02T17:02:41.455Z,14.10
2024-03-02T17:05:09.965Z,12.77
2024-03-02T17:07:38.231Z,14.73
2024-03-02T17:10:07.245Z,17.07
2024-03-02T17:12:35.620Z,13.30
2024-03-02T17:15:05.458Z,12.90
2024-03-02T17:17:33.937Z,16.90
2024-03-02T17:20:02.652Z,15.50
2024-03-02T17:22:32.526Z,16.30
2024-03-02T17:25:00.999Z,18.53
2024-03-02T17:27:31.769Z,22.13
2024-03-02T17:30:00.539Z,22.53
2024-03-02T17:32:29.410Z,23.80
2024-03-02T17:35:00.266Z,20.50
2024-03-02T17:37:28.981Z,21.07
2024-03-02T17:39:57.264Z,23.03
2024-03-02T17:42:26.955Z,20.40
2024-03-02T17:44:55.211Z,27.10
2024-03-02T17:47:23.461Z,23.70
2024-03-02T17:49:51.729Z,23.67
2024-03-02T17:52:20.052Z,24.53
2024-03-02T17:54:48.311Z,27.30
2024-03-02T17:57:16.641Z,26.60
2024-03-02T17:59:45.756Z,28.20
2024-03-02T18:02:14.057Z,25.60
2024-03-02T18:04:43.184Z,28.20
2024-03-02T18:07:11.551Z,26.07
2024-03-02T18:09:39.854Z,26.30
2024-03-02T18:12:08.505Z,31.70
2024-03-02T18:14:40.307Z,25.23
2024-03-02T18:17:08.870Z,27.27
2024-03-02T18:19:36.794Z,30.13
2024-03-02T18:22:05.093Z,24.57
2024-03-02T18:24:37.471Z,26.83
2024-03-02T18:27:06.167Z,25.33
2024-03-02T18:29:34.516Z,25.50
2024-03-02T18:32:04.480Z,30.97
2024-03-02T18:34:33.583Z,28.87
2024-03-02T18:37:03.394Z,28.17
2024-03-02T18:39:31.744Z,30.87
2024-03-02T18:42:00.301Z,30.93
2024-03-02T18:44:28.637Z,30.83
2024-03-02T18:46:56.844Z,32.93
2024-03-02T18:49:27.847Z,30.10
2024-03-02T18:51:56.394Z,29.27
2024-03-02T18:54:24.650Z,30.63
2024-03-02T18:56:53.202Z,31.33
2024-03-02T18:59:21.559Z,31.47
2024-03-02T19:01:50.318Z,32.40
2024-03-02T19:04:19.642Z,31.87
2024-03-02T19:06:47.888Z,35.83
2024-03-02T19:09:16.411Z,38.97
2024-03-02T19:11:44.674Z,34.73
2024-03-02T19:14:12.892Z,36.77
2024-03-02T19:16:41.453Z,38.20
2024-03-02T19:19:09.693Z,37.57
2024-03-02T19:21:38.130Z,40.20
2024-03-02T19:24:06.469Z,37.93
2024-03-02T19:26:34.729Z,40.27
2024-03-02T19:29:02.900Z,37.23
2024-03-02T19:31:31.149Z,36.40
2024-03-02T19:33:59.510Z,37.53
2024-03-02T19:36:29.058Z,41.47
2024-03-02T19:38:57.403Z,43.43
2024-03-02T19:41:25.716Z,45.23
2024-03-02T19:43:54.184Z,40.87
2024-03-02T19:46:23.838Z,42.73
2024-03-02T19:48:52.141Z,41.13
2024-03-02T19:51:20.460Z,47.10
2024-03-02T19:53:48.665Z,39.50
2024-03-02T19:56:21.255Z,45.03
2024-03-02T19:58:49.460Z,38.97
2024-03-02T20:01:20.673Z,43.83
2024-03-02T20:03:51.107Z,38.03
2024-03-02T20:06:22.181Z,39.90
2024-03-02T20:08:50.850Z,40.00
2024-03-02T20:11:19.248Z,41.67
2024-03-02T20:13:47.480Z,42.43
2024-03-02T20:16:21.554Z,37.93
2024-03-02T20:18:50.800Z,39.97
2024-03-02T20:21:19.105Z,36.13
2024-03-02T20:23:47.336Z,39.37
2024-03-02T20:26:16.969Z,34.53
2024-03-02T20:28:46.269Z,39.37
2024-03-02T20:31:16.165Z,40.43
2024-03-02T20:33:44.522Z,34.30
2024-03-02T20:36:16.621Z,37.17
2024-03-02T20:38:45.136Z,40.70
2024-03-02T20:41:20.205Z,38.80
2024-03-02T20:43:48.873Z,36.17
2024-03-02T20:46:17.223Z,38.17
2024-03-02T20:48:47.336Z,44.63
2024-03-02T20:51:15.775Z,43.70
2024-03-02T20:53:43.989Z,40.93
2024-03-02T20:56:12.733Z,39.93
2024-03-02T20:58:42.317Z,37.60
2024-03-02T21:01:12.408Z,37.83
2024-03-02T21:03:41.619Z,42.90
2024-03-02T21:06:10.057Z,40.03
2024-03-02T21:08:38.440Z,41.37
2024-03-02T21:11:07.330Z,40.10
2024-03-02T21:13:35.610Z,42.60
2024-03-02T21:16:04.376Z,45.67
2024-03-02T21:18:32.730Z,45.27
2024-03-02T21:21:01.054Z,46.70
2024-03-02T21:23:30.415Z,44.23
2024-03-02T21:25:58.724Z,43.63
2024-03-02T21:28:27.154Z,49.47
2024-03-02T21:30:55.415Z,48.00
2024-03-02T21:33:23.502Z,48.47
2024-03-02T21:35:51.765Z,42.10
2024-03-02T21:38:19.964Z,47.90
2024-03-02T21:40:49.816Z,40.50
2024-03-02T21:43:18.527Z,46.23
2024-03-02T21:45:47.089Z,48.47
2024-03-02T21:48:15.357Z,48.25
2024-03-02T21:50:44.359Z,46.93
2024-03-02T21:53:13.647Z,48.87
2024-03-02T21:55:42.048Z,43.80
2024-03-02T21:58:10.385Z,46.67
2024-03-02T22:00:39.800Z,44.03
2024-03-02T22:03:08.267Z,44.73
2024-03-02T22:05:36.974Z,40.93
2024-03-02T22:08:05.296Z,45.03
2024-03-02T22:10:33.755Z,42.23
2024-03-02T22:13:01.815Z,42.30
2024-03-02T22:15:30.339Z,44.63
2024-03-02T22:18:01.575Z,45.07
2024-03-02T22:20:29.786Z,43.67
2024-03-02T22:22:58.553Z,45.93
2024-03-02T22:25:26.859Z,49.37
2024-03-02T22:27:56.936Z,44.93
2024-03-02T22:30:27.357Z,46.93
2024-03-02T22:32:57.305Z,42.27
2024-03-02T22:35:26.645Z,41.70
2024-03-02T22:37:55.268Z,44.20
2024-03-02T22:40:26.031Z,38.80
2024-03-02T22:42:54.430Z,41.27
2024-03-02T22:45:22.659Z,44.50
2024-03-02T22:47:51.672Z,40.20
2024-03-02T22:50:19.960Z,40.07
2024-03-02T22:52:48.192Z,43.97
2024-03-02T22:55:16.654Z,41.33
2024-03-02T22:57:45.076Z,42.70
2024-03-02T23:00:32.237Z,47.27
2024-03-02T23:03:01.086Z,42.23
2024-03-02T23:05:30.261Z,39.73
2024-03-02T23:07:58.727Z,42.30
2024-03-02T23:10:27.083Z,38.43
2024-03-02T23:12:55.449Z,43.10
2024-03-02T23:15:24.313Z,42.57
2024-03-02T23:17:52.538Z,43.90
2024-03-02T23:20:20.733Z,42.67
2024-03-02T23:22:49.023Z,42.70
2024-03-02T23:25:17.313Z,45.37
2024-03-02T23:27:45.648Z,40.17
2024-03-02T23:30:13.986Z,45.87
2024-03-02T23:32:42.441Z,43.53
2024-03-02T23:35:10.389Z,39.53
2024-03-02T23:37:38.633Z,42.27
2024-03-02T23:40:36.673Z,42.07
2024-03-02T23:43:04.446Z,37.87
2024-03-02T23:45:33.045Z,42.23
2024-03-02T23:48:01.727Z,41.03
2024-03-02T23:50:29.973Z,38.77
2024-03-02T23:52:58.157Z,40.93
2024-03-02T23:55:36.142Z,40.87
2024-03-02T23:58:11.214Z,40.80
